Time;durP1;ratioP1;P1;durP2;ratioP2;P2;SDS_P1;SDS_P2;PMS_P1;PMS_P2;Temp;Humidity;BMP_temperature;BMP_pressure;BME280_temperature;BME280_humidity;BME280_pressure;Samples;Min_cycle;Max_cycle;Signal;HPM_P1;HPM_P2
2023/12/18 00:00:48;;;;;;;44.85;38.83;;;;;;;0.77;98.44;99944.75;5065038;28;20207;-73
2023/12/18 00:03:15;;;;;;;40.50;36.22;;;;;;;0.81;99.10;99946.28;5064453;28;20215;-74
2023/12/18 00:05:41;;;;;;;48.03;42.40;;;;;;;0.60;99.04;99928.00;5065475;28;20207;-74
2023/12/18 00:08:08;;;;;;;50.90;40.97;;;;;;;0.60;99.70;99938.66;5064768;28;20246;-74
2023/12/18 00:10:35;;;;;;;39.80;35.60;;;;;;;0.72;100.00;99941.53;5064718;28;21469;-74
2023/12/18 00:13:01;;;;;;;45.90;38.38;;;;;;;0.70;100.00;99935.41;5064954;28;20212;-74
2023/12/18 00:15:28;;;;;;;44.45;39.95;;;;;;;0.70;100.00;99930.09;5067126;28;20195;-76
2023/12/18 00:17:56;;;;;;;47.72;40.05;;;;;;;0.80;100.00;99933.91;5065792;28;20724;-73
2023/12/18 00:20:22;;;;;;;44.47;39.60;;;;;;;0.36;100.00;99889.53;5062910;28;20649;-73
2023/12/18 00:22:49;;;;;;;44.40;38.42;;;;;;;0.59;100.00;99920.09;5063216;28;20207;-74
2023/12/18 00:25:16;;;;;;;46.33;40.92;;;;;;;0.43;100.00;99917.50;5064048;28;20391;-74
2023/12/18 00:27:42;;;;;;;45.60;40.88;;;;;;;0.50;100.00;99916.19;5062075;28;20211;-75
2023/12/18 00:30:10;;;;;;;44.15;39.55;;;;;;;0.52;100.00;99908.97;5065091;28;20286;-75
2023/12/18 00:32:38;;;;;;;42.25;37.75;;;;;;;0.62;100.00;99909.28;5065150;28;20227;-73
2023/12/18 00:35:06;;;;;;;48.70;41.35;;;;;;;0.47;100.00;99910.19;5066443;28;20290;-73
2023/12/18 00:37:33;;;;;;;45.40;40.50;;;;;;;0.48;100.00;99906.56;5067292;28;20218;-74
2023/12/18 00:40:00;;;;;;;44.58;38.28;;;;;;;0.35;100.00;99903.78;5064587;28;20228;-73
2023/12/18 00:42:26;;;;;;;47.15;41.60;;;;;;;0.37;100.00;99901.03;5065174;28;20283;-73
2023/12/18 00:44:53;;;;;;;47.97;40.72;;;;;;;0.34;100.00;99899.41;5066693;28;20307;-74
2023/12/18 00:47:20;;;;;;;41.38;36.13;;;;;;;0.37;100.00;99903.69;5061301;28;20793;-74
2023/12/18 00:49:46;;;;;;;45.92;38.58;;;;;;;0.34;100.00;99907.38;5061744;28;20204;-74
2023/12/18 00:52:19;;;;;;;41.40;36.88;;;;;;;0.35;100.00;99906.44;5064603;28;20259;-74
2023/12/18 00:54:46;;;;;;;45.63;40.10;;;;;;;0.27;100.00;99884.78;5066589;28;20244;-74
2023/12/18 00:57:12;;;;;;;49.90;39.75;;;;;;;0.28;100.00;99890.00;5066412;28;20200;-74
2023/12/18 00:59:39;;;;;;;45.53;38.40;;;;;;;0.29;100.00;99897.03;5065646;28;20238;-74
2023/12/18 01:02:05;;;;;;;48.88;42.08;;;;;;;0.29;100.00;99898.84;5064491;28;20201;-74
2023/12/18 01:04:32;;;;;;;40.78;35.88;;;;;;;0.30;100.00;99904.09;5062076;28;20277;-75
2023/12/18 01:06:59;;;;;;;38.38;34.47;;;;;;;0.40;99.81;99904.38;5064917;28;20227;-74
2023/12/18 01:09:26;;;;;;;43.65;36.85;;;;;;;0.27;99.66;99892.75;5062797;28;20251;-74
2023/12/18 01:11:53;;;;;;;42.17;36.63;;;;;;;0.19;99.80;99895.88;5072566;28;20291;-74
2023/12/18 01:14:20;;;;;;;32.65;29.40;;;;;;;0.16;100.00;99908.50;5067329;28;20467;-75
2023/12/18 01:16:46;;;;;;;36.95;32.95;;;;;;;0.19;99.82;99905.66;5048730;28;20623;-74
2023/12/18 01:19:13;;;;;;;37.95;33.95;;;;;;;0.11;99.52;99902.59;5068627;28;20207;-74
2023/12/18 01:21:39;;;;;;;33.78;30.35;;;;;;;0.10;99.36;99901.72;5064752;28;20208;-74
2023/12/18 01:24:06;;;;;;;40.20;33.00;;;;;;;0.01;98.99;99883.63;5067310;28;20201;-75
2023/12/18 01:26:37;;;;;;;34.25;29.88;;;;;;;-0.09;98.79;99864.72;5063200;28;20301;-74
2023/12/18 01:29:03;;;;;;;42.17;34.45;;;;;;;-0.16;99.05;99889.09;5062108;28;20191;-74
2023/12/18 01:31:31;;;;;;;34.53;30.88;;;;;;;-0.04;98.97;99888.38;5066744;28;20227;-75
2023/12/18 01:33:58;;;;;;;32.80;29.50;;;;;;;-0.23;99.13;99888.59;5066100;28;20311;-74
2023/12/18 01:36:25;;;;;;;37.03;30.70;;;;;;;-0.30;99.32;99875.72;5065470;28;20242;-74
2023/12/18 01:38:52;;;;;;;32.45;28.83;;;;;;;-0.35;99.72;99886.66;5063600;28;20212;-74
2023/12/18 01:41:19;;;;;;;33.28;29.85;;;;;;;-0.26;99.36;99883.44;5064879;28;20246;-75
2023/12/18 01:43:47;;;;;;;37.75;31.27;;;;;;;-0.42;99.57;99871.97;5064850;28;20733;-75
2023/12/18 01:46:18;;;;;;;36.85;30.83;;;;;;;-0.50;100.00;99876.88;5061793;28;20275;-74
2023/12/18 01:48:45;;;;;;;33.83;30.23;;;;;;;-0.49;100.00;99875.94;5063018;28;20209;-74
2023/12/18 01:51:13;;;;;;;39.88;33.10;;;;;;;-0.52;100.00;99881.41;5046584;28;20200;-74
2023/12/18 01:53:43;;;;;;;39.20;34.95;;;;;;;-0.62;100.00;99874.91;5065103;28;20768;-74
2023/12/18 01:56:11;;;;;;;36.63;31.38;;;;;;;-0.50;100.00;99874.22;5069726;28;20207;-73
2023/12/18 01:58:38;;;;;;;38.95;34.85;;;;;;;-0.53;100.00;99847.81;5062008;28;20311;-73
2023/12/18 02:01:06;;;;;;;38.00;32.72;;;;;;;-0.47;100.00;99861.59;5062647;28;20204;-73
2023/12/18 02:03:35;;;;;;;36.25;31.27;;;;;;;-0.46;100.00;99865.97;5061955;28;20211;-73
2023/12/18 02:06:01;;;;;;;36.95;30.80;;;;;;;-0.44;100.00;99857.91;5063387;28;20291;-74
2023/12/18 02:08:28;;;;;;;31.88;28.45;;;;;;;-0.38;100.00;99865.56;5066512;28;20300;-74
2023/12/18 02:10:55;;;;;;;34.47;30.95;;;;;;;-0.36;100.00;99855.69;5064165;28;20260;-74
2023/12/18 02:13:21;;;;;;;36.03;31.40;;;;;;;-0.32;100.00;99865.16;5063819;28;20224;-74
2023/12/18 02:15:48;;;;;;;34.10;28.55;;;;;;;-0.24;100.00;99870.06;5062769;28;20196;-73
2023/12/18 02:18:18;;;;;;;34.45;30.25;;;;;;;-0.31;100.00;99863.38;5060280;28;20235;-73
2023/12/18 02:20:45;;;;;;;38.75;34.55;;;;;;;-0.33;99.91;99859.97;5063120;28;20204;-73
2023/12/18 02:23:13;;;;;;;34.70;30.48;;;;;;;-0.41;100.00;99857.75;5061238;28;20290;-73
2023/12/18 02:25:40;;;;;;;36.47;32.55;;;;;;;-0.29;100.00;99858.81;5067964;28;20624;-73
2023/12/18 02:28:08;;;;;;;33.92;30.10;;;;;;;-0.27;100.00;99854.25;5059838;28;20231;-73
2023/12/18 02:30:35;;;;;;;37.70;33.20;;;;;;;-0.56;100.00;99830.22;5063573;28;20296;-74
2023/12/18 02:33:02;;;;;;;33.05;29.48;;;;;;;-0.38;100.00;99846.94;5063921;28;20523;-74
2023/12/18 02:35:29;;;;;;;37.30;32.05;;;;;;;-0.47;100.00;99842.13;5071464;28;20265;-74
2023/12/18 02:37:56;;;;;;;35.47;30.85;;;;;;;-0.54;100.00;99836.31;5071528;28;20321;-74
2023/12/18 02:40:25;;;;;;;37.30;31.63;;;;;;;-0.61;100.00;99845.56;5069211;28;20282;-74
2023/12/18 02:42:52;;;;;;;36.85;30.30;;;;;;;-0.60;100.00;99835.78;5078198;28;20633;-75
2023/12/18 02:45:18;;;;;;;34.95;29.65;;;;;;;-0.58;100.00;99828.59;5067610;28;20246;-74
2023/12/18 02:47:45;;;;;;;35.20;30.13;;;;;;;-0.39;100.00;99832.78;5068777;28;20290;-74
2023/12/18 02:50:12;;;;;;;31.27;27.88;;;;;;;-0.31;100.00;99829.66;5067965;28;20250;-74
2023/12/18 02:52:38;;;;;;;36.30;32.10;;;;;;;-0.32;100.00;99838.56;5066883;28;20233;-74
2023/12/18 02:55:07;;;;;;;36.92;32.22;;;;;;;-0.36;100.00;99829.94;5067669;28;20892;-74
2023/12/18 02:57:41;;;;;;;35.22;31.52;;;;;;;-0.29;100.00;99829.56;5069527;28;20303;-73
2023/12/18 03:00:09;;;;;;;36.75;32.15;;;;;;;-0.24;100.00;99817.72;5068922;28;20257;-72
2023/12/18 03:02:35;;;;;;;34.50;30.90;;;;;;;-0.17;100.00;99820.88;5068191;28;20216;-72
2023/12/18 03:05:02;;;;;;;34.42;30.83;;;;;;;-0.19;100.00;99826.28;5068539;28;20277;-72
2023/12/18 03:07:29;;;;;;;37.17;33.10;;;;;;;-0.21;100.00;99822.84;5069858;28;20231;-73
2023/12/18 03:09:55;;;;;;;30.92;27.83;;;;;;;-0.18;100.00;99817.34;5071402;28;20235;-73
2023/12/18 03:12:22;;;;;;;31.95;28.73;;;;;;;-0.14;99.54;99823.34;5068307;28;20678;-73
2023/12/18 03:14:51;;;;;;;32.97;29.38;;;;;;;-0.15;99.55;99822.50;5068158;28;20220;-73
2023/12/18 03:17:18;;;;;;;31.83;28.65;;;;;;;-0.19;99.19;99820.97;5083388;28;20200;-73
2023/12/18 03:19:44;;;;;;;28.75;25.80;;;;;;;-0.18;99.60;99817.34;5069387;28;20657;-73
2023/12/18 03:22:13;;;;;;;33.05;29.50;;;;;;;-0.15;99.27;99816.31;5069599;28;20655;-73
2023/12/18 03:24:39;;;;;;;28.90;26.02;;;;;;;-0.10;99.03;99806.25;5067843;28;20192;-73
2023/12/18 03:27:06;;;;;;;31.75;27.30;;;;;;;-0.21;99.19;99809.53;5068314;28;20248;-73
2023/12/18 03:29:33;;;;;;;29.90;26.80;;;;;;;-0.16;99.33;99799.50;5068364;28;20200;-73
2023/12/18 03:32:03;;;;;;;28.33;25.38;;;;;;;-0.22;99.24;99810.50;5067229;28;20286;-73
2023/12/18 03:34:30;;;;;;;27.95;25.10;;;;;;;-0.21;99.60;99812.22;5066315;28;20220;-74
2023/12/18 03:36:56;;;;;;;28.20;25.17;;;;;;;-0.16;99.55;99810.13;5068162;28;20656;-74
2023/12/18 03:39:23;;;;;;;24.95;22.55;;;;;;;-0.07;99.13;99809.59;5068571;28;20203;-73
2023/12/18 03:41:49;;;;;;;26.85;24.10;;;;;;;0.01;98.46;99814.44;5069481;28;20294;-74
2023/12/18 03:44:16;;;;;;;28.02;25.10;;;;;;;-0.08;98.59;99807.88;5067572;28;20295;-74
2023/12/18 03:46:43;;;;;;;30.00;26.80;;;;;;;-0.20;99.14;99789.97;5065817;28;20290;-73
2023/12/18 03:49:13;;;;;;;29.08;26.27;;;;;;;-0.11;99.45;99808.06;5075307;28;20327;-74
2023/12/18 03:51:39;;;;;;;24.60;22.08;;;;;;;-0.02;99.34;99807.53;5068022;28;20203;-74
2023/12/18 03:54:10;;;;;;;27.40;24.65;;;;;;;0.07;99.11;99811.41;5089026;28;20208;-75
2023/12/18 03:56:36;;;;;;;28.48;25.73;;;;;;;-0.02;99.36;99807.53;5072917;28;20274;-74
2023/12/18 03:59:03;;;;;;;29.40;26.42;;;;;;;0.06;99.85;99809.69;5049755;28;20212;-74
2023/12/18 04:01:33;;;;;;;28.08;25.08;;;;;;;0.14;99.50;99801.25;5068935;28;20216;-74
2023/12/18 04:04:00;;;;;;;27.80;25.00;;;;;;;0.28;98.71;99798.63;5050931;28;20201;-74
2023/12/18 04:06:28;;;;;;;27.20;24.60;;;;;;;0.26;98.45;99797.84;5067527;28;20296;-74
2023/12/18 04:08:56;;;;;;;24.38;22.00;;;;;;;0.43;98.23;99803.00;5068923;28;20223;-74
2023/12/18 04:11:22;;;;;;;25.30;22.67;;;;;;;0.31;98.29;99795.78;5068460;28;20586;-74
2023/12/18 04:13:48;;;;;;;21.30;19.30;;;;;;;0.38;97.44;99791.75;5066843;28;20245;-74
2023/12/18 04:16:15;;;;;;;24.30;22.08;;;;;;;0.40;97.65;99797.84;5068307;28;20666;-73
2023/12/18 04:18:42;;;;;;;23.10;21.00;;;;;;;0.53;96.34;99806.81;5066437;28;20672;-74
2023/12/18 04:21:08;;;;;;;22.45;20.45;;;;;;;0.54;96.34;99810.31;5063862;28;20656;-74
2023/12/18 04:23:36;;;;;;;23.88;21.58;;;;;;;0.53;96.43;99809.47;5065125;28;20294;-74
2023/12/18 04:26:03;;;;;;;22.92;20.73;;;;;;;0.44;96.42;99799.38;5062550;28;20214;-74
2023/12/18 04:28:29;;;;;;;21.85;19.65;;;;;;;0.57;95.84;99800.34;5066662;28;20272;-74
2023/12/18 04:30:56;;;;;;;22.70;20.33;;;;;;;0.58;95.99;99796.72;5072531;28;20714;-73
2023/12/18 04:33:22;;;;;;;23.35;21.15;;;;;;;0.45;95.99;99800.22;5064605;28;20299;-73
2023/12/18 04:35:49;;;;;;;22.70;20.50;;;;;;;0.43;96.09;99803.00;5066591;28;20286;-74
2023/12/18 04:38:17;;;;;;;19.98;18.17;;;;;;;0.48;96.13;99790.25;5069121;28;20231;-74
2023/12/18 04:40:45;;;;;;;20.48;18.58;;;;;;;0.51;95.96;99800.72;5074592;28;20211;-73
2023/12/18 04:43:12;;;;;;;19.88;17.90;;;;;;;0.49;95.57;99796.44;5066463;28;20502;-74
2023/12/18 04:45:38;;;;;;;22.85;20.70;;;;;;;0.36;96.11;99806.97;5067509;28;20287;-74
2023/12/18 04:48:05;;;;;;;20.80;18.80;;;;;;;0.30;96.66;99802.06;5067058;28;20713;-74
2023/12/18 04:50:32;;;;;;;20.50;18.40;;;;;;;0.20;96.00;99748.50;5068335;28;20236;-74
2023/12/18 04:53:00;;;;;;;19.20;17.25;;;;;;;0.27;95.46;99770.28;5067555;28;20658;-74
2023/12/18 04:55:27;;;;;;;20.75;18.73;;;;;;;0.44;95.25;99794.03;5047332;28;20229;-74
2023/12/18 04:57:54;;;;;;;19.35;17.35;;;;;;;0.48;95.51;99800.91;5076910;28;20216;-74
2023/12/18 05:00:22;;;;;;;20.92;18.95;;;;;;;0.43;94.85;99797.66;5067653;28;20295;-74
2023/12/18 05:02:49;;;;;;;20.63;18.73;;;;;;;0.22;95.20;99796.34;5064294;28;20318;-71
2023/12/18 05:05:15;;;;;;;20.02;17.90;;;;;;;0.28;96.60;99795.97;5060265;28;20611;-70
2023/12/18 05:07:42;;;;;;;22.40;20.05;;;;;;;0.26;96.56;99798.72;5061579;28;20215;-73
2023/12/18 05:10:09;;;;;;;20.15;18.05;;;;;;;0.15;96.88;99795.00;5061918;28;20295;-73
2023/12/18 05:12:35;;;;;;;20.88;18.77;;;;;;;0.09;97.25;99803.34;5046900;28;20200;-71
2023/12/18 05:15:04;;;;;;;19.75;17.83;;;;;;;0.28;96.63;99803.94;5059927;28;20797;-71
2023/12/18 05:17:30;;;;;;;22.48;20.27;;;;;;;-0.22;96.19;99754.63;5056967;28;20234;-79
2023/12/18 05:19:57;;;;;;;21.50;19.38;;;;;;;0.22;96.53;99793.66;5062526;28;20232;-71
2023/12/18 05:22:23;;;;;;;20.52;18.35;;;;;;;0.26;95.86;99789.88;5060812;28;20619;-71
2023/12/18 05:24:50;;;;;;;21.42;19.52;;;;;;;-0.03;96.24;99751.72;5062133;28;20204;-71
2023/12/18 05:27:17;;;;;;;20.20;18.20;;;;;;;0.05;96.61;99800.00;5060856;28;20213;-71
2023/12/18 05:29:44;;;;;;;21.13;19.13;;;;;;;-0.04;96.37;99787.28;5060859;28;20197;-71
2023/12/18 05:32:12;;;;;;;18.75;16.95;;;;;;;0.16;96.28;99794.03;5060543;28;20283;-72
2023/12/18 05:34:38;;;;;;;19.20;17.27;;;;;;;0.14;95.92;99795.94;5062107;28;20301;-71
2023/12/18 05:37:05;;;;;;;19.48;17.67;;;;;;;0.05;96.06;99791.16;5059751;28;20302;-72
2023/12/18 05:39:31;;;;;;;17.65;16.05;;;;;;;0.18;95.57;99786.81;5061805;28;20200;-72
2023/12/18 05:41:58;;;;;;;18.55;16.80;;;;;;;0.21;95.34;99786.63;5059382;28;20283;-74
2023/12/18 05:44:24;;;;;;;18.42;16.45;;;;;;;0.18;95.23;99800.97;5062273;28;20291;-72
2023/12/18 05:46:51;;;;;;;17.70;16.10;;;;;;;0.26;93.95;99781.88;5061429;28;20319;-72
2023/12/18 05:49:19;;;;;;;19.02;17.15;;;;;;;0.37;94.33;99803.34;5069528;28;20725;-72
2023/12/18 05:51:46;;;;;;;19.63;17.70;;;;;;;0.25;93.91;99804.13;5058340;28;20691;-72
2023/12/18 05:54:12;;;;;;;19.42;17.60;;;;;;;0.14;94.45;99790.63;5061599;28;20211;-72
2023/12/18 05:56:39;;;;;;;19.13;17.20;;;;;;;0.15;94.61;99795.00;5060468;28;20611;-72
2023/12/18 05:59:06;;;;;;;17.58;15.75;;;;;;;0.18;94.46;99798.31;5060076;28;20195;-71
2023/12/18 06:01:33;;;;;;;17.48;15.77;;;;;;;0.18;94.09;99800.13;5059738;28;20212;-72
2023/12/18 06:04:00;;;;;;;17.67;15.98;;;;;;;0.25;93.94;99805.00;5060421;28;20198;-70
2023/12/18 06:06:28;;;;;;;17.50;15.80;;;;;;;0.26;93.99;99805.84;5072127;28;20240;-69
2023/12/18 06:08:54;;;;;;;16.23;14.70;;;;;;;0.35;93.33;99799.94;5055726;28;20287;-72
2023/12/18 06:11:21;;;;;;;15.93;14.52;;;;;;;0.35;93.31;99799.94;5061953;28;20247;-70
2023/12/18 06:13:47;;;;;;;15.93;14.48;;;;;;;0.21;93.39;99798.13;5059388;28;20208;-71
2023/12/18 06:16:14;;;;;;;16.35;14.85;;;;;;;0.21;94.15;99803.47;5061900;28;20242;-71
2023/12/18 06:18:40;;;;;;;17.30;15.60;;;;;;;0.30;93.71;99802.06;5058348;28;20287;-72
2023/12/18 06:21:07;;;;;;;16.42;14.82;;;;;;;0.15;93.87;99806.50;5060719;28;20290;-72
2023/12/18 06:23:35;;;;;;;16.58;14.85;;;;;;;0.06;94.51;99811.50;5062613;28;20309;-72
2023/12/18 06:26:02;;;;;;;18.38;16.48;;;;;;;0.20;94.18;99808.88;5063231;28;20654;-72
2023/12/18 06:28:28;;;;;;;17.95;16.15;;;;;;;0.08;94.50;99807.81;5058596;28;20211;-72
2023/12/18 06:30:55;;;;;;;18.08;16.27;;;;;;;0.21;94.24;99798.13;5056987;28;20212;-73
2023/12/18 06:33:22;;;;;;;17.50;15.80;;;;;;;0.19;93.92;99809.81;5060334;28;20232;-72
2023/12/18 06:35:48;;;;;;;18.75;16.27;;;;;;;0.41;93.03;99810.22;5060199;28;20359;-72
2023/12/18 06:38:15;;;;;;;19.88;17.88;;;;;;;0.14;93.74;99815.41;5076022;28;20196;-72
2023/12/18 06:40:43;;;;;;;18.10;16.35;;;;;;;0.33;93.13;99817.81;5056561;28;20860;-72
2023/12/18 06:43:10;;;;;;;17.50;15.73;;;;;;;0.16;93.14;99825.97;5058826;28;20283;-72
2023/12/18 06:45:36;;;;;;;18.45;16.42;;;;;;;0.13;93.34;99823.50;5058345;28;20200;-72
2023/12/18 06:48:03;;;;;;;18.95;17.08;;;;;;;0.27;92.68;99834.19;5050483;28;20633;-71
2023/12/18 06:50:31;;;;;;;18.65;16.70;;;;;;;0.30;92.45;99829.53;5054545;28;20627;-71
2023/12/18 06:53:00;;;;;;;18.90;16.90;;;;;;;0.32;91.78;99821.44;5056724;28;20210;-70
2023/12/18 06:55:27;;;;;;;20.25;18.17;;;;;;;0.13;92.24;99831.47;5056378;28;20228;-70
2023/12/18 06:57:55;;;;;;;17.92;16.23;;;;;;;0.30;91.70;99826.00;5054243;28;20787;-70
2023/12/18 07:00:22;;;;;;;19.20;17.40;;;;;;;0.30;91.64;99834.00;5053029;28;20539;-73
2023/12/18 07:02:48;;;;;;;17.70;15.77;;;;;;;0.27;91.42;99823.53;5057291;28;20222;-71
2023/12/18 07:05:16;;;;;;;16.80;15.13;;;;;;;0.38;91.13;99823.72;5055367;28;20283;-75
2023/12/18 07:07:42;;;;;;;18.98;16.95;;;;;;;0.15;91.89;99824.25;5052316;28;20200;-72
2023/12/18 07:10:09;;;;;;;18.42;16.67;;;;;;;0.07;92.29;99826.53;5061906;28;20222;-72
2023/12/18 07:12:36;;;;;;;17.40;15.80;;;;;;;0.25;92.10;99830.75;5055033;28;20235;-72
2023/12/18 07:15:04;;;;;;;16.60;14.90;;;;;;;0.32;91.69;99843.63;5057657;28;20311;-73
2023/12/18 07:17:31;;;;;;;17.55;15.70;;;;;;;0.26;91.43;99845.78;5068022;28;20204;-74
2023/12/18 07:19:57;;;;;;;15.88;14.30;;;;;;;0.33;91.01;99845.28;5059892;28;20200;-74
2023/12/18 07:22:24;;;;;;;15.20;13.75;;;;;;;0.18;91.21;99848.03;5060308;28;20288;-73
2023/12/18 07:24:51;;;;;;;17.38;14.55;;;;;;;0.24;91.63;99858.31;5063458;28;20291;-74
2023/12/18 07:27:17;;;;;;;16.67;14.55;;;;;;;0.36;91.16;99844.25;5066279;28;20223;-74
2023/12/18 07:29:44;;;;;;;15.85;13.90;;;;;;;0.38;91.18;99852.16;5062974;28;20214;-74
2023/12/18 07:32:12;;;;;;;15.73;13.98;;;;;;;0.33;91.57;99849.75;5061491;28;21612;-74
2023/12/18 07:34:38;;;;;;;15.18;13.70;;;;;;;0.33;91.97;99855.09;5058536;28;20212;-74
2023/12/18 07:37:05;;;;;;;15.57;14.07;;;;;;;0.40;91.91;99848.44;5057955;28;20276;-74
2023/12/18 07:39:32;;;;;;;15.02;13.63;;;;;;;0.64;91.01;99849.63;5059702;28;20284;-74
2023/12/18 07:41:59;;;;;;;17.20;15.50;;;;;;;0.48;91.18;99848.84;5056795;28;20294;-74
2023/12/18 07:44:25;;;;;;;17.15;15.45;;;;;;;0.60;90.90;99861.41;5059426;28;20288;-73
2023/12/18 07:46:52;;;;;;;17.02;15.27;;;;;;;0.71;90.14;99863.41;5061228;28;20232;-74
2023/12/18 07:49:22;;;;;;;20.70;15.85;;;;;;;0.56;90.43;99851.91;5060797;28;20657;-74
2023/12/18 07:51:48;;;;;;;16.80;15.10;;;;;;;0.58;90.40;99843.81;5061669;28;20222;-74
2023/12/18 07:54:15;;;;;;;15.38;13.77;;;;;;;0.53;90.65;99846.75;5061521;28;20300;-73
2023/12/18 07:56:42;;;;;;;15.63;14.10;;;;;;;0.73;90.71;99857.97;5061260;28;20223;-74
2023/12/18 07:59:11;;;;;;;15.88;14.30;;;;;;;0.76;90.21;99857.78;5062406;28;20208;-73
2023/12/18 08:01:37;;;;;;;17.40;15.65;;;;;;;0.83;89.76;99862.66;5060334;28;20203;-73
2023/12/18 08:04:04;;;;;;;15.75;14.05;;;;;;;0.84;90.03;99860.84;5061671;28;20290;-72
2023/12/18 08:06:32;;;;;;;16.02;14.32;;;;;;;0.74;90.62;99859.69;5060998;28;20291;-73
2023/12/18 08:08:59;;;;;;;15.57;14.02;;;;;;;0.92;90.04;99866.53;5062132;28;20317;-73
2023/12/18 08:11:25;;;;;;;15.90;14.45;;;;;;;0.85;90.02;99859.88;5060214;28;20256;-69
2023/12/18 08:13:52;;;;;;;16.27;14.73;;;;;;;1.00;89.71;99857.09;5056325;28;20292;-70
2023/12/18 08:16:18;;;;;;;17.55;15.93;;;;;;;0.81;89.86;99864.53;5060933;28;20318;-72
2023/12/18 08:18:46;;;;;;;20.17;17.20;;;;;;;0.71;90.23;99858.06;5061390;28;20254;-72
2023/12/18 08:21:14;;;;;;;16.70;15.00;;;;;;;0.97;89.84;99856.47;5067729;28;20232;-72
2023/12/18 08:23:43;;;;;;;17.17;15.57;;;;;;;0.77;89.36;99825.72;5060180;28;20204;-71
2023/12/18 08:26:10;;;;;;;16.67;15.13;;;;;;;0.99;89.40;99849.19;5059490;28;20743;-72
2023/12/18 08:28:37;;;;;;;18.02;16.30;;;;;;;1.01;89.51;99847.28;5057482;28;20208;-72
2023/12/18 08:31:04;;;;;;;17.75;15.90;;;;;;;1.04;89.24;99843.56;5057629;28;20196;-72
2023/12/18 08:33:30;;;;;;;17.77;15.98;;;;;;;1.03;89.28;99845.38;5057561;28;20206;-72
2023/12/18 08:35:57;;;;;;;17.38;15.70;;;;;;;1.21;89.54;99844.22;5061130;28;20214;-72
2023/12/18 08:38:23;;;;;;;16.75;15.15;;;;;;;1.15;89.16;99844.59;5059018;28;20626;-71
2023/12/18 08:40:51;;;;;;;16.42;14.60;;;;;;;1.10;89.68;99846.72;5061092;28;20228;-71
2023/12/18 08:43:19;;;;;;;16.58;15.00;;;;;;;1.27;89.19;99843.84;5059418;28;20220;-75
2023/12/18 08:45:46;;;;;;;15.55;14.15;;;;;;;1.35;88.67;99844.16;5060504;28;20691;-71
2023/12/18 08:48:12;;;;;;;15.30;13.82;;;;;;;1.54;87.99;99840.31;5057896;28;20278;-71
2023/12/18 08:50:39;;;;;;;14.90;13.50;;;;;;;1.63;88.31;99834.34;5057881;28;20212;-70
2023/12/18 08:53:06;;;;;;;16.55;14.85;;;;;;;2.37;86.95;99839.09;5057924;28;20236;-69
2023/12/18 08:55:37;;;;;;;13.10;11.90;;;;;;;3.31;83.01;99829.66;5059399;28;20307;-71
2023/12/18 08:58:04;;;;;;;15.38;13.93;;;;;;;3.78;79.27;99833.34;5062412;28;20303;-76
2023/12/18 09:00:31;;;;;;;13.80;12.60;;;;;;;4.42;76.90;99830.25;5060894;28;20209;-71
2023/12/18 09:02:58;;;;;;;12.68;11.35;;;;;;;5.02;73.49;99833.44;5061842;28;20282;-72
2023/12/18 09:05:26;;;;;;;11.73;10.52;;;;;;;5.48;70.79;99828.88;5059751;28;20214;-73
2023/12/18 09:07:52;;;;;;;11.07;10.05;;;;;;;5.52;69.36;99792.75;5060548;28;20299;-72
2023/12/18 09:10:22;;;;;;;10.35;9.55;;;;;;;5.80;68.77;99828.91;5070734;28;20207;-72
2023/12/18 09:12:48;;;;;;;10.13;9.23;;;;;;;5.86;66.95;99839.13;5053826;28;20195;-72
2023/12/18 09:15:17;;;;;;;9.23;8.40;;;;;;;6.12;67.16;99827.09;5060817;28;20288;-72
2023/12/18 09:17:43;;;;;;;10.90;9.90;;;;;;;5.87;65.79;99825.56;5059620;28;20205;-72
2023/12/18 09:20:11;;;;;;;10.73;9.73;;;;;;;5.76;66.40;99825.63;5059868;28;20218;-72
2023/12/18 09:22:37;;;;;;;10.63;9.73;;;;;;;6.01;66.80;99819.91;5068139;28;20237;-72
2023/12/18 09:25:04;;;;;;;10.52;9.52;;;;;;;6.44;65.43;99812.72;5058630;28;20206;-72
2023/12/18 09:27:31;;;;;;;9.77;8.98;;;;;;;6.61;64.40;99814.78;5058355;28;20266;-72
2023/12/18 09:29:58;;;;;;;9.02;8.32;;;;;;;6.91;64.23;99800.50;5061792;28;20207;-72
2023/12/18 09:32:26;;;;;;;10.68;9.25;;;;;;;6.97;63.16;99797.25;5055811;28;20231;-72
2023/12/18 09:34:52;;;;;;;9.60;8.60;;;;;;;7.21;61.95;99797.75;5089408;27;20203;-72
2023/12/18 09:37:19;;;;;;;9.65;8.85;;;;;;;7.78;60.43;99798.03;5053822;28;20281;-72
2023/12/18 09:39:45;;;;;;;9.57;8.70;;;;;;;7.55;60.44;99783.94;5058178;28;20290;-72
2023/12/18 09:42:13;;;;;;;9.13;8.43;;;;;;;7.58;60.65;99791.75;5058039;28;20634;-75
2023/12/18 09:44:41;;;;;;;10.57;9.68;;;;;;;8.46;58.52;99791.56;5059455;28;20208;-72
2023/12/18 09:47:08;;;;;;;10.07;9.10;;;;;;;8.92;57.19;99789.88;5061904;28;20807;-72
2023/12/18 09:49:36;;;;;;;10.45;9.52;;;;;;;9.07;55.77;99780.31;5070680;28;20277;-72
2023/12/18 09:52:06;;;;;;;9.93;9.02;;;;;;;8.97;55.22;99791.13;5059728;28;20204;-72
2023/12/18 09:54:33;;;;;;;9.35;8.40;;;;;;;9.78;54.42;99783.09;5064255;28;20294;-72
2023/12/18 09:57:00;;;;;;;9.55;8.65;;;;;;;9.88;52.89;99754.13;5073430;28;20258;-73
2023/12/18 09:59:27;;;;;;;8.90;8.20;;;;;;;9.81;54.07;99773.84;5058088;28;20646;-72
2023/12/18 10:01:54;;;;;;;8.70;8.10;;;;;;;10.26;52.16;99744.00;5059001;28;20204;-78
2023/12/18 10:04:21;;;;;;;9.30;8.55;;;;;;;9.97;51.29;99772.16;5065015;28;20213;-72
2023/12/18 10:06:49;;;;;;;10.07;9.10;;;;;;;10.09;52.21;99779.00;5056724;28;20358;-73
2023/12/18 10:09:16;;;;;;;9.05;8.25;;;;;;;9.79;53.10;99776.69;5091934;28;20204;-74
2023/12/18 10:11:45;;;;;;;9.75;8.95;;;;;;;9.13;54.95;99778.81;5058256;28;20204;-72
2023/12/18 10:14:13;;;;;;;9.18;8.30;;;;;;;10.04;52.65;99762.41;5057030;28;20208;-73
2023/12/18 10:16:40;;;;;;;9.40;8.60;;;;;;;10.31;52.33;99757.91;5092814;28;20230;-75
2023/12/18 10:19:07;;;;;;;10.45;8.82;;;;;;;10.74;50.92;99751.56;5059535;28;20578;-75
2023/12/18 10:21:33;;;;;;;9.05;8.15;;;;;;;10.44;51.90;99753.75;5060479;28;20239;-75
2023/12/18 10:24:01;;;;;;;10.00;8.63;;;;;;;10.31;51.73;99755.19;5060902;28;20295;-75
2023/12/18 10:26:28;;;;;;;9.27;8.47;;;;;;;10.83;50.01;99752.47;5059624;28;20721;-75
2023/12/18 10:28:55;;;;;;;9.60;8.70;;;;;;;11.21;48.42;99749.25;5056598;28;21168;-75
2023/12/18 10:31:22;;;;;;;9.73;8.00;;;;;;;10.67;50.00;99740.53;5061631;28;20654;-76
2023/12/18 10:33:48;;;;;;;8.53;7.83;;;;;;;10.72;49.55;99735.47;5094342;28;20657;-75
2023/12/18 10:36:16;;;;;;;8.60;7.90;;;;;;;10.47;50.74;99733.63;5060550;28;21754;-75
2023/12/18 10:38:46;;;;;;;8.27;7.57;;;;;;;10.89;49.51;99735.56;5071303;28;20650;-75
2023/12/18 10:41:15;;;;;;;8.73;7.93;;;;;;;10.90;49.24;99731.84;5061251;28;20641;-76
2023/12/18 10:43:45;;;;;;;8.93;8.03;;;;;;;10.59;49.11;99732.38;5059164;28;20709;-76
2023/12/18 10:46:12;;;;;;;8.83;8.03;;;;;;;10.24;50.84;99729.78;5059977;28;20626;-75
2023/12/18 10:48:40;;;;;;;9.10;8.30;;;;;;;10.36;50.51;99725.81;5061495;28;20692;-75
2023/12/18 10:51:07;;;;;;;7.95;7.28;;;;;;;10.28;51.07;99725.75;5058859;28;20324;-76
2023/12/18 10:53:36;;;;;;;10.38;9.10;;;;;;;10.85;49.61;99721.50;5067741;28;20214;-75
2023/12/18 10:56:04;;;;;;;9.65;8.15;;;;;;;11.41;47.87;99718.13;5063880;28;20768;-75
2023/12/18 10:58:33;;;;;;;8.93;8.10;;;;;;;11.56;48.78;99718.31;5064932;28;20291;-76
2023/12/18 11:01:00;;;;;;;7.30;6.60;;;;;;;12.67;51.24;99718.63;5069193;28;20195;-74
2023/12/18 11:03:27;;;;;;;8.70;7.90;;;;;;;12.75;45.80;99716.72;5094749;28;20627;-72
2023/12/18 11:05:54;;;;;;;8.43;7.73;;;;;;;12.93;45.26;99705.63;5096965;28;20635;-71
2023/12/18 11:08:21;;;;;;;9.00;8.20;;;;;;;13.45;44.19;99696.88;5063880;28;20633;-74
2023/12/18 11:10:47;;;;;;;8.43;7.73;;;;;;;13.59;43.52;99696.13;5061028;28;20637;-74
2023/12/18 11:13:21;;;;;;;8.03;7.33;;;;;;;13.44;44.16;99692.47;5063982;28;20713;-73
2023/12/18 11:16:03;;;;;;;8.23;7.40;;;;;;;13.31;43.31;99682.19;5061627;28;20637;-75
2023/12/18 11:18:39;;;;;;;9.93;7.30;;;;;;;13.57;43.45;99681.84;5095340;27;20630;-75
2023/12/18 11:21:06;;;;;;;7.00;6.50;;;;;;;14.20;42.25;99677.91;5062224;28;21362;-75
2023/12/18 11:23:38;;;;;;;7.90;7.20;;;;;;;14.57;41.22;99674.34;5061737;28;20709;-75